Time;durP1;ratioP1;P1;durP2;ratioP2;P2;SDS_P1;SDS_P2;PMS_P1;PMS_P2;Temp;Humidity;BMP_temperature;BMP_pressure;BME280_temperature;BME280_humidity;BME280_pressure;Samples;Min_cycle;Max_cycle;Signal;HPM_P1;HPM_P2
2022/10/04 00:02:24;;;;;;;2.23;1.50;;;;;;;15.63;61.20;94871.22;5004441;28;20185;-80
2022/10/04 00:04:58;;;;;;;1.63;1.53;;;;;;;15.65;61.15;94865.94;4992777;28;20687;-79
2022/10/04 00:07:28;;;;;;;6.00;1.43;;;;;;;15.64;61.32;94869.47;4992113;28;20587;-79
2022/10/04 00:09:58;;;;;;;1.63;1.50;;;;;;;15.62;61.36;94868.81;4992417;28;20186;-79
2022/10/04 00:12:28;;;;;;;2.57;1.80;;;;;;;15.61;61.48;94873.16;4992812;28;20200;-79
2022/10/04 00:14:58;;;;;;;2.00;1.53;;;;;;;15.61;61.42;94875.72;4992075;28;20212;-78
2022/10/04 00:17:30;;;;;;;3.30;1.70;;;;;;;15.62;61.20;94881.69;4992106;28;20219;-78
2022/10/04 00:19:58;;;;;;;4.70;2.00;;;;;;;15.60;61.22;94868.97;4991657;28;20182;-80
2022/10/04 00:22:27;;;;;;;1.87;1.60;;;;;;;15.61;61.27;94860.28;4992033;28;20201;-79
2022/10/04 00:25:18;;;;;;;1.47;1.37;;;;;;;15.62;61.29;94861.06;4991741;28;20193;-79
2022/10/04 00:28:28;;;;;;;1.63;1.50;;;;;;;15.60;61.33;94853.50;4991382;28;20235;-78
2022/10/04 00:31:20;;;;;;;2.40;1.60;;;;;;;15.59;61.30;94857.06;4991961;28;20657;-79
2022/10/04 00:33:50;;;;;;;2.23;1.60;;;;;;;15.53;61.24;94850.78;4991621;28;20193;-79
2022/10/04 00:36:46;;;;;;;2.20;1.63;;;;;;;15.57;61.25;94857.22;4991687;28;20181;-80
2022/10/04 00:39:41;;;;;;;1.50;1.40;;;;;;;15.55;61.34;94859.16;4991452;28;20291;-79
2022/10/04 00:42:53;;;;;;;1.50;1.40;;;;;;;15.54;61.36;94851.56;4991915;28;20265;-78
2022/10/04 00:45:29;;;;;;;1.67;1.50;;;;;;;15.51;61.44;94845.00;4991770;28;20201;-79
2022/10/04 00:48:31;;;;;;;2.00;1.73;;;;;;;15.48;61.26;94840.16;4989137;28;20228;-79
2022/10/04 00:51:06;;;;;;;1.70;1.60;;;;;;;15.46;61.16;94836.94;4991472;28;20192;-79
2022/10/04 00:53:47;;;;;;;1.40;1.30;;;;;;;15.42;61.35;94827.94;4991363;28;20188;-79
2022/10/04 00:56:20;;;;;;;2.40;1.60;;;;;;;15.41;61.09;94823.72;4991303;28;20197;-80
2022/10/04 00:59:20;;;;;;;2.47;1.83;;;;;;;15.32;61.25;94811.81;4991239;28;20189;-80
2022/10/04 01:01:52;;;;;;;1.70;1.60;;;;;;;15.33;61.17;94818.59;4990955;28;20215;-79
2022/10/04 01:04:30;;;;;;;1.50;1.40;;;;;;;15.35;61.28;94821.81;4991077;28;20220;-79
2022/10/04 01:07:01;;;;;;;5.03;1.87;;;;;;;15.32;61.15;94819.56;4990966;28;20657;-78
2022/10/04 01:09:31;;;;;;;3.77;1.70;;;;;;;15.29;61.33;94820.72;4990824;28;20650;-80
2022/10/04 01:12:04;;;;;;;1.80;1.70;;;;;;;15.26;61.31;94823.59;4991241;28;20193;-80
2022/10/04 01:14:41;;;;;;;1.80;1.50;;;;;;;15.24;61.06;94816.97;4990764;28;20193;-81
2022/10/04 01:17:08;;;;;;;2.30;1.50;;;;;;;15.23;61.22;94821.34;4990740;28;20184;-81
2022/10/04 01:19:35;;;;;;;2.53;1.30;;;;;;;15.19;61.20;94819.25;4982143;28;20194;-80
2022/10/04 01:22:18;;;;;;;6.80;1.90;;;;;;;15.13;61.17;94815.56;4971715;28;20193;-80
2022/10/04 01:24:46;;;;;;;1.60;1.40;;;;;;;15.18;61.13;94827.97;4971239;28;20214;-78
2022/10/04 01:27:35;;;;;;;2.27;1.73;;;;;;;15.17;61.01;94821.19;4971290;28;21064;-81
2022/10/04 01:30:08;;;;;;;2.33;1.47;;;;;;;15.10;61.11;94815.88;4971195;28;20201;-80
2022/10/04 01:32:35;;;;;;;1.67;1.57;;;;;;;15.13;61.34;94822.50;4971225;28;20198;-80
2022/10/04 01:35:02;;;;;;;2.03;1.50;;;;;;;15.11;61.07;94816.69;4971206;28;20215;-78
2022/10/04 01:37:29;;;;;;;1.20;1.20;;;;;;;15.04;61.27;94807.03;4953752;28;20233;-78
2022/10/04 01:40:01;;;;;;;1.80;1.30;;;;;;;15.07;61.24;94816.22;4971044;28;20186;-79
2022/10/04 01:42:38;;;;;;;1.50;1.40;;;;;;;15.04;61.17;94813.97;4971561;28;20182;-79
2022/10/04 01:45:13;;;;;;;1.27;1.27;;;;;;;15.00;61.29;94810.91;4970952;28;20201;-79
2022/10/04 01:47:44;;;;;;;1.70;1.57;;;;;;;14.96;61.20;94812.19;4970992;28;20217;-79
2022/10/04 01:50:16;;;;;;;1.60;1.50;;;;;;;14.97;61.16;94824.09;4970982;28;20649;-80
2022/10/04 01:52:47;;;;;;;1.23;1.20;;;;;;;14.85;61.08;94811.69;4973761;28;20804;-80
2022/10/04 01:55:18;;;;;;;2.37;1.67;;;;;;;14.92;60.80;94826.34;4990620;28;20627;-80
2022/10/04 01:57:51;;;;;;;1.90;1.43;;;;;;;14.91;61.17;94823.94;4990774;28;20204;-80
2022/10/04 02:00:23;;;;;;;2.60;1.60;;;;;;;14.83;61.08;94813.66;4993169;28;20202;-80
2022/10/04 02:02:55;;;;;;;2.50;1.40;;;;;;;14.87;61.23;94825.22;4977159;28;20227;-78
2022/10/04 02:05:30;;;;;;;1.83;1.40;;;;;;;14.85;61.22;94827.16;4991110;28;20189;-79
2022/10/04 02:08:02;;;;;;;2.03;1.40;;;;;;;14.78;61.31;94827.81;4971178;28;20217;-79
2022/10/04 02:10:35;;;;;;;1.47;1.30;;;;;;;14.80;61.24;94830.22;4971386;28;20205;-79
2022/10/04 02:13:04;;;;;;;1.60;1.50;;;;;;;14.78;61.15;94832.94;4971149;28;20197;-79
2022/10/04 02:15:32;;;;;;;2.67;1.50;;;;;;;14.77;61.27;94833.91;4974280;28;20679;-79
2022/10/04 02:17:59;;;;;;;1.57;1.40;;;;;;;14.76;61.28;94837.44;4990174;28;20240;-79
2022/10/04 02:20:27;;;;;;;1.40;1.30;;;;;;;14.69;61.24;94833.91;4990354;28;20215;-79
2022/10/04 02:23:01;;;;;;;1.50;1.40;;;;;;;14.73;61.47;94835.22;4990524;28;20208;-78
2022/10/04 02:25:30;;;;;;;1.60;1.40;;;;;;;14.71;61.52;94837.13;4990030;28;20188;-79
2022/10/04 02:27:57;;;;;;;1.80;1.53;;;;;;;14.67;61.58;94838.41;4990427;28;20312;-79
2022/10/04 02:30:24;;;;;;;3.20;1.90;;;;;;;14.70;61.57;94847.59;4992726;28;20219;-79
2022/10/04 02:32:59;;;;;;;1.40;1.30;;;;;;;14.53;61.52;94826.97;4983159;28;20190;-79
2022/10/04 02:35:29;;;;;;;1.47;1.40;;;;;;;14.64;61.52;94848.22;4974446;28;20224;-79
2022/10/04 02:38:05;;;;;;;1.60;1.50;;;;;;;14.35;61.66;94800.53;4974478;28;20295;-80
2022/10/04 02:40:40;;;;;;;1.53;1.40;;;;;;;14.63;61.67;94847.41;4974430;28;20202;-80
2022/10/04 02:43:14;;;;;;;2.67;1.33;;;;;;;14.61;61.91;94840.81;4974555;28;20200;-80
2022/10/04 02:45:49;;;;;;;2.10;1.70;;;;;;;14.49;61.96;94833.38;4973863;28;20201;-79
2022/10/04 02:48:35;;;;;;;1.40;1.30;;;;;;;14.59;62.14;94861.53;4991100;28;20734;-79
2022/10/04 02:51:14;;;;;;;1.60;1.50;;;;;;;14.58;61.90;94854.78;4993976;28;20197;-80
2022/10/04 02:53:50;;;;;;;8.00;1.70;;;;;;;14.54;62.05;94861.22;4993551;28;20193;-80
2022/10/04 02:56:19;;;;;;;1.87;1.70;;;;;;;14.55;62.10;94862.84;4994007;28;20211;-80
2022/10/04 02:58:46;;;;;;;1.27;1.20;;;;;;;14.53;62.34;94863.00;4993315;28;20185;-80
2022/10/04 03:01:25;;;;;;;1.60;1.50;;;;;;;14.51;62.40;94859.78;4990665;28;21727;-80
2022/10/04 03:03:54;;;;;;;1.20;1.20;;;;;;;14.50;62.32;94860.72;4974057;28;20217;-79
2022/10/04 03:06:28;;;;;;;3.27;2.03;;;;;;;14.50;62.48;94871.03;4975435;28;20213;-78
2022/10/04 03:08:58;;;;;;;3.00;1.77;;;;;;;14.48;62.31;94862.66;4993087;28;20711;-78
2022/10/04 03:11:31;;;;;;;1.93;1.63;;;;;;;14.48;62.61;94860.09;4993315;28;20668;-78
2022/10/04 03:14:08;;;;;;;1.27;1.27;;;;;;;14.30;62.51;94831.88;4993318;28;20614;-79
2022/10/04 03:16:38;;;;;;;1.87;1.57;;;;;;;14.46;62.45;94866.31;4985956;28;20197;-80
2022/10/04 03:19:07;;;;;;;1.60;1.50;;;;;;;14.44;62.59;94868.25;4975567;28;20197;-78
2022/10/04 03:21:35;;;;;;;1.53;1.43;;;;;;;14.44;62.72;94870.81;4973782;28;20190;-79
2022/10/04 03:24:06;;;;;;;1.90;1.20;;;;;;;14.43;62.63;94869.22;4973630;28;20190;-79
2022/10/04 03:26:42;;;;;;;1.63;1.43;;;;;;;14.42;62.69;94872.72;4973998;28;20198;-79
2022/10/04 03:29:11;;;;;;;1.93;1.50;;;;;;;14.33;62.64;94866.75;4975494;28;20223;-79
2022/10/04 03:31:42;;;;;;;2.43;1.67;;;;;;;14.40;62.64;94885.75;4983618;28;20231;-79
2022/10/04 03:34:16;;;;;;;1.70;1.60;;;;;;;14.39;62.88;94889.31;4975582;28;20272;-79
2022/10/04 03:36:51;;;;;;;3.17;1.60;;;;;;;14.27;62.79;94869.97;4973042;28;20632;-80
2022/10/04 03:39:27;;;;;;;1.50;1.40;;;;;;;14.38;62.84;94885.13;4957133;28;20729;-79
2022/10/04 03:41:57;;;;;;;1.77;1.63;;;;;;;14.38;62.68;94892.84;4952908;28;20202;-79
2022/10/04 03:44:25;;;;;;;1.57;1.47;;;;;;;14.37;62.60;94891.22;4954741;28;20195;-79
2022/10/04 03:46:52;;;;;;;1.60;1.40;;;;;;;14.37;62.62;94896.34;4968378;28;20205;-79
2022/10/04 03:49:33;;;;;;;2.27;1.70;;;;;;;14.37;62.83;94891.22;4973027;28;20298;-79
2022/10/04 03:52:04;;;;;;;3.77;2.00;;;;;;;14.37;62.67;94882.69;4972988;28;20702;-80
2022/10/04 03:54:33;;;;;;;1.77;1.50;;;;;;;14.35;62.64;94882.84;4971407;28;20649;-81
2022/10/04 03:57:05;;;;;;;1.50;1.40;;;;;;;14.32;62.66;94883.97;4973632;28;20190;-80
2022/10/04 03:59:33;;;;;;;1.90;1.70;;;;;;;14.36;62.74;94888.81;4979206;28;20186;-79
2022/10/04 04:02:15;;;;;;;1.80;1.50;;;;;;;14.34;62.81;94896.69;4961030;28;20198;-79
2022/10/04 04:04:51;;;;;;;2.33;1.50;;;;;;;14.15;62.60;94864.28;4961970;28;20201;-79
2022/10/04 04:07:27;;;;;;;3.70;1.50;;;;;;;14.34;62.88;94895.88;4975028;28;20201;-79
2022/10/04 04:10:02;;;;;;;1.43;1.33;;;;;;;14.24;63.00;94886.50;4974628;28;20190;-78
2022/10/04 04:12:40;;;;;;;1.33;1.30;;;;;;;14.32;62.85;94907.13;4979710;28;20181;-79
2022/10/04 04:15:11;;;;;;;1.77;1.67;;;;;;;14.25;62.67;94898.44;4986313;28;20213;-80
2022/10/04 04:17:43;;;;;;;3.10;1.80;;;;;;;14.29;62.72;94912.59;4979734;28;20197;-79
2022/10/04 04:20:24;;;;;;;2.17;1.40;;;;;;;14.30;62.91;94913.41;4976571;28;20284;-78
2022/10/04 04:23:01;;;;;;;2.40;1.60;;;;;;;14.27;62.82;94916.28;4991222;28;20213;-79
2022/10/04 04:25:32;;;;;;;4.23;1.60;;;;;;;14.28;62.89;94923.81;4977658;28;20603;-78
2022/10/04 04:28:07;;;;;;;2.10;1.63;;;;;;;14.28;62.89;94923.03;4964058;28;20578;-79
2022/10/04 04:30:37;;;;;;;1.60;1.50;;;;;;;14.28;62.87;94923.81;4967146;28;20721;-82
2022/10/04 04:33:15;;;;;;;2.10;1.90;;;;;;;14.29;62.88;94922.06;4976979;28;20190;-80
2022/10/04 04:35:42;;;;;;;2.13;1.50;;;;;;;14.30;62.92;94924.50;4971537;28;20204;-81
2022/10/04 04:38:19;;;;;;;2.77;1.50;;;;;;;14.25;62.97;94916.44;4980356;28;20235;-83
2022/10/04 04:40:46;;;;;;;1.70;1.53;;;;;;;14.31;62.76;94926.09;4993272;28;20196;-82
2022/10/04 04:43:19;;;;;;;1.70;1.60;;;;;;;14.33;62.79;94923.34;4994695;28;20208;-79
2022/10/04 04:45:48;;;;;;;2.67;2.33;;;;;;;14.34;62.73;94924.19;4991882;28;20617;-79
2022/10/04 04:48:17;;;;;;;1.60;1.50;;;;;;;14.31;62.76;94918.38;4991567;28;20259;-84
2022/10/04 04:50:52;;;;;;;2.77;1.60;;;;;;;14.36;62.69;94928.19;4992213;28;20392;-78
2022/10/04 04:53:22;;;;;;;1.63;1.40;;;;;;;14.37;62.81;94923.84;4993304;28;20196;-81
2022/10/04 04:55:52;;;;;;;1.70;1.60;;;;;;;14.30;62.82;94921.91;4992235;28;20189;-83
2022/10/04 04:58:24;;;;;;;1.60;1.50;;;;;;;14.41;62.64;94938.03;4992684;28;20192;-81
2022/10/04 05:00:56;;;;;;;2.60;1.77;;;;;;;14.44;62.53;94943.69;4991450;28;20205;-80
2022/10/04 05:03:24;;;;;;;3.87;1.60;;;;;;;14.48;62.56;94936.47;4991805;28;20189;-78
2022/10/04 05:05:53;;;;;;;2.03;1.87;;;;;;;14.61;62.30;94936.84;4991065;28;20196;-79
2022/10/04 05:08:22;;;;;;;3.10;1.90;;;;;;;14.79;62.18;94941.88;4991528;28;20225;-80
2022/10/04 05:10:56;;;;;;;5.57;1.73;;;;;;;15.02;62.35;94942.88;4991477;28;20193;-80
2022/10/04 05:13:28;;;;;;;2.33;1.80;;;;;;;15.26;62.29;94943.91;4991330;28;20193;-81
2022/10/04 05:15:59;;;;;;;2.13;1.80;;;;;;;15.48;62.15;94950.19;4991366;28;20193;-81
2022/10/04 05:18:31;;;;;;;1.70;1.60;;;;;;;15.77;62.26;94939.41;4991740;28;20193;-78
2022/10/04 05:21:04;;;;;;;1.60;1.50;;;;;;;15.95;62.71;94910.84;4991718;28;20193;-80
2022/10/04 05:23:33;;;;;;;2.43;2.07;;;;;;;16.59;62.25;94952.88;4992207;28;20208;-80
2022/10/04 05:26:03;;;;;;;3.33;2.17;;;;;;;16.94;61.86;94953.38;4991994;28;20604;-80
2022/10/04 05:28:33;;;;;;;2.90;1.80;;;;;;;17.08;61.38;94934.56;4992402;28;20217;-80
2022/10/04 05:31:19;;;;;;;2.27;1.70;;;;;;;17.36;61.25;94947.78;4996424;28;20193;-82
2022/10/04 05:33:49;;;;;;;2.03;1.80;;;;;;;17.47;60.90;94962.06;5005110;28;20196;-80
2022/10/04 05:36:38;;;;;;;1.83;1.60;;;;;;;17.59;60.34;94959.88;4995885;28;20657;-77
2022/10/04 05:39:14;;;;;;;2.00;1.80;;;;;;;17.86;59.60;94956.75;4991131;28;20228;-80
2022/10/04 05:41:51;;;;;;;5.60;1.87;;;;;;;18.26;59.26;94955.56;4991818;28;20184;-79
2022/10/04 05:44:24;;;;;;;2.00;1.80;;;;;;;18.60;58.87;94959.38;4991196;28;20204;-80
2022/10/04 05:46:53;;;;;;;3.03;1.70;;;;;;;19.00;58.37;94963.28;4997798;28;20284;-82
2022/10/04 05:49:22;;;;;;;1.83;1.70;;;;;;;19.05;57.76;94929.03;4996488;28;20220;-80
2022/10/04 05:51:52;;;;;;;2.67;1.73;;;;;;;19.59;57.05;94966.63;4992455;28;20189;-81
2022/10/04 05:54:22;;;;;;;1.70;1.60;;;;;;;19.96;56.50;94971.56;4992260;28;20227;-81
2022/10/04 05:57:15;;;;;;;1.97;1.53;;;;;;;20.31;55.96;94981.97;4992364;28;20196;-80
2022/10/04 06:00:10;;;;;;;1.60;1.50;;;;;;;20.82;55.31;94994.69;4999530;28;20214;-80
2022/10/04 06:03:04;;;;;;;1.33;1.30;;;;;;;21.41;54.69;94983.66;4998021;28;20196;-81
2022/10/04 06:05:44;;;;;;;3.28;1.55;;;;;;;22.12;53.96;94997.94;4997688;28;20208;-81
2022/10/04 06:08:23;;;;;;;2.25;1.70;;;;;;;22.83;53.21;94999.84;4998549;28;20216;-79
2022/10/04 06:11:04;;;;;;;2.38;1.80;;;;;;;23.40;52.26;94995.59;4999248;28;20197;-82
2022/10/04 06:13:58;;;;;;;1.60;1.50;;;;;;;23.92;50.87;95009.34;5005314;28;20181;-82
2022/10/04 06:16:42;;;;;;;1.60;1.50;;;;;;;24.30;49.57;95004.00;4932537;29;20202;-79
2022/10/04 06:19:22;;;;;;;1.42;1.33;;;;;;;24.63;49.16;95016.00;4931975;29;20282;-81
2022/10/04 06:22:05;;;;;;;2.22;1.30;;;;;;;24.86;48.54;95005.66;4933295;29;20239;-82
2022/10/04 06:24:36;;;;;;;1.48;1.30;;;;;;;25.37;47.78;95019.38;4920503;29;20184;-80
2022/10/04 06:27:10;;;;;;;2.05;1.38;;;;;;;25.74;46.73;95020.88;4916477;29;20743;-84
2022/10/04 06:29:42;;;;;;;1.30;1.08;;;;;;;26.14;46.24;95020.28;4918456;29;20212;-81
2022/10/04 06:32:37;;;;;;;1.52;1.40;;;;;;;26.36;45.53;95002.19;4916712;29;20195;-83
2022/10/04 06:35:43;;;;;;;0.98;0.98;;;;;;;26.82;44.72;95023.41;4915981;29;20200;-82
2022/10/04 06:38:33;;;;;;;1.30;1.20;;;;;;;26.95;44.52;95012.66;4842190;29;20234;-82
2022/10/04 06:41:12;;;;;;;3.22;1.50;;;;;;;26.97;45.37;95024.50;4847532;29;20605;-82
2022/10/04 06:44:05;;;;;;;3.13;1.40;;;;;;;26.92;44.45;95032.28;4848935;29;20265;-82
2022/10/04 06:46:42;;;;;;;2.28;1.20;;;;;;;26.96;43.90;95024.75;4847720;29;20202;-81
2022/10/04 06:49:36;;;;;;;2.80;1.40;;;;;;;26.97;43.98;95040.25;4850906;29;20241;-80
2022/10/04 06:52:36;;;;;;;1.52;1.40;;;;;;;26.81;43.84;95043.56;4818009;29;20187;-79
2022/10/04 06:55:32;;;;;;;1.70;1.40;;;;;;;26.53;43.84;95036.44;4874688;29;20201;-81
2022/10/04 06:58:25;;;;;;;1.50;1.40;;;;;;;26.31;43.71;95049.28;4866713;29;20219;-81
2022/10/04 07:00:57;;;;;;;1.88;1.70;;;;;;;26.08;44.16;95057.91;4864341;29;20202;-80
2022/10/04 07:03:29;;;;;;;1.40;1.30;;;;;;;25.79;44.01;95041.22;4866656;29;20202;-81
2022/10/04 07:06:02;;;;;;;2.40;1.27;;;;;;;25.73;43.87;95055.97;4869477;29;20302;-81
2022/10/04 07:08:37;;;;;;;1.50;1.40;;;;;;;25.75;43.79;95053.13;4871496;29;20733;-81
2022/10/04 07:11:12;;;;;;;1.25;1.15;;;;;;;25.73;44.31;95045.50;4873333;29;20212;-81
2022/10/04 07:13:45;;;;;;;1.50;1.40;;;;;;;25.77;44.05;95057.13;4869572;29;20241;-83
2022/10/04 07:16:29;;;;;;;1.65;1.45;;;;;;;25.67;43.98;95050.81;4933705;29;20637;-82
2022/10/04 07:19:08;;;;;;;1.60;1.50;;;;;;;25.72;43.72;95043.88;4934205;29;20303;-81
2022/10/04 07:21:43;;;;;;;1.10;1.10;;;;;;;25.80;43.10;95039.38;4933772;28;20210;-82
2022/10/04 07:24:18;;;;;;;2.03;1.15;;;;;;;26.20;42.89;95055.28;4933519;29;20195;-83
2022/10/04 07:26:48;;;;;;;1.33;1.23;;;;;;;26.64;42.70;95054.00;4933520;29;20186;-80
2022/10/04 07:29:21;;;;;;;1.42;1.33;;;;;;;27.13;42.57;95045.84;4971082;28;20232;-82
2022/10/04 07:31:52;;;;;;;1.85;1.27;;;;;;;27.58;41.92;95060.88;4994122;28;20306;-83
2022/10/04 07:34:26;;;;;;;4.18;1.40;;;;;;;27.55;42.16;95045.59;4993568;28;20268;-84
2022/10/04 07:36:57;;;;;;;1.38;1.33;;;;;;;27.68;42.50;95066.34;4993603;28;20196;-80
2022/10/04 07:39:28;;;;;;;0.98;0.98;;;;;;;27.50;42.33;95054.16;4992618;28;20229;-80
2022/10/04 07:41:58;;;;;;;1.30;1.20;;;;;;;27.48;42.27;95061.50;4993348;28;20569;-82
2022/10/04 07:44:35;;;;;;;4.28;1.20;;;;;;;27.42;42.09;95065.06;4993148;28;20203;-80
2022/10/04 07:47:13;;;;;;;1.05;1.05;;;;;;;27.18;41.73;95052.00;4993047;28;20231;-80
2022/10/04 07:49:41;;;;;;;1.45;1.30;;;;;;;27.10;41.96;95081.25;4993410;28;20300;-81
2022/10/04 07:52:29;;;;;;;1.15;1.10;;;;;;;26.86;41.56;95069.16;4993442;28;20208;-82
2022/10/04 07:55:07;;;;;;;1.35;1.25;;;;;;;26.63;41.86;95080.44;4993998;28;20189;-78
2022/10/04 07:57:47;;;;;;;1.42;1.40;;;;;;;26.38;41.79;95072.75;5001142;28;20199;-79
2022/10/04 08:00:19;;;;;;;1.10;1.10;;;;;;;26.20;41.83;95090.19;4996894;28;20324;-79
2022/10/04 08:03:04;;;;;;;1.30;1.30;;;;;;;26.02;41.57;95085.00;4993799;28;20208;-80
2022/10/04 08:05:37;;;;;;;1.23;1.20;;;;;;;25.80;41.68;95079.47;4993212;28;20862;-82
2022/10/04 08:08:29;;;;;;;1.63;1.13;;;;;;;25.68;41.70;95094.31;4992802;28;20513;-82
2022/10/04 08:11:11;;;;;;;1.50;1.33;;;;;;;25.52;41.57;95086.06;4992407;28;20232;-81
2022/10/04 08:13:50;;;;;;;1.23;1.20;;;;;;;25.37;41.73;95090.88;4992613;28;20207;-82
2022/10/04 08:16:32;;;;;;;1.40;1.30;;;;;;;25.05;41.64;95063.25;4992204;28;20192;-80
2022/10/04 08:19:16;;;;;;;1.42;1.33;;;;;;;25.09;41.27;95086.19;4992143;28;20664;-81
2022/10/04 08:21:56;;;;;;;2.03;1.10;;;;;;;24.94;41.55;95085.69;4992010;28;20189;-80
2022/10/04 08:24:32;;;;;;;1.70;1.25;;;;;;;24.82;41.58;95088.22;4992520;28;20185;-80
2022/10/04 08:27:23;;;;;;;1.30;1.20;;;;;;;24.73;41.33;95089.53;4992192;28;20189;-81
2022/10/04 08:30:04;;;;;;;1.50;1.40;;;;;;;24.60;41.60;95077.38;4988555;28;20225;-81
2022/10/04 08:32:50;;;;;;;1.10;1.10;;;;;;;24.50;41.84;95085.72;4991934;28;20280;-79
2022/10/04 08:35:33;;;;;;;1.40;1.30;;;;;;;24.50;41.45;95084.91;4991449;28;20193;-82
2022/10/04 08:38:25;;;;;;;2.00;1.50;;;;;;;24.46;41.63;95087.16;4992076;28;20233;-79
2022/10/04 08:41:34;;;;;;;1.35;1.25;;;;;;;24.50;41.52;95077.06;4991641;28;20197;-81
2022/10/04 08:44:41;;;;;;;2.88;1.35;;;;;;;24.65;41.71;95076.72;4992200;28;20292;-82
2022/10/04 08:47:49;;;;;;;1.48;1.48;;;;;;;24.91;41.77;95083.50;4991655;28;20252;-80
2022/10/04 08:50:59;;;;;;;1.40;1.30;;;;;;;25.12;41.26;95067.41;4991520;28;20259;-82
2022/10/04 08:54:08;;;;;;;1.40;1.20;;;;;;;25.61;40.77;95093.63;4991446;28;20189;-80
2022/10/04 08:57:04;;;;;;;1.13;1.10;;;;;;;25.94;40.83;95090.56;4991565;28;20484;-82
2022/10/04 09:00:07;;;;;;;1.45;1.35;;;;;;;26.21;40.92;95088.38;4991339;28;20189;-81
2022/10/04 09:03:03;;;;;;;2.00;1.30;;;;;;;26.47;40.88;95084.56;4909942;29;20199;-83
2022/10/04 09:06:07;;;;;;;1.95;1.50;;;;;;;26.63;40.18;95080.44;4874689;29;20197;-82
2022/10/04 09:09:33;;;;;;;1.17;1.10;;;;;;;26.69;39.70;95079.56;4872447;29;20200;-81
2022/10/04 09:12:35;;;;;;;1.27;1.17;;;;;;;26.65;39.64;95083.66;4874368;29;20200;-81
2022/10/04 09:15:26;;;;;;;2.50;1.48;;;;;;;26.46;39.67;95081.13;4874541;29;20691;-79
2022/10/04 09:18:03;;;;;;;1.75;1.27;;;;;;;26.29;40.29;95080.16;4837642;29;20194;-81
2022/10/04 09:20:47;;;;;;;1.27;1.17;;;;;;;26.18;39.66;95081.75;4837496;29;20699;-82
2022/10/04 09:23:57;;;;;;;1.70;1.40;;;;;;;26.04;40.18;95088.22;4837227;29;20206;-81
2022/10/04 09:26:31;;;;;;;1.10;1.10;;;;;;;25.86;40.02;95096.91;4837403;29;20210;-82
2022/10/04 09:29:32;;;;;;;3.58;1.40;;;;;;;25.73;40.02;95097.06;4837829;29;20293;-82
2022/10/04 09:32:45;;;;;;;1.98;1.40;;;;;;;25.64;39.90;95088.72;4837211;29;20213;-82
2022/10/04 09:35:39;;;;;;;1.23;1.20;;;;;;;25.76;39.97;95094.84;4800760;29;20238;-81
2022/10/04 09:38:23;;;;;;;1.10;1.10;;;;;;;25.88;39.45;95087.03;4813302;29;20230;-81
2022/10/04 09:41:07;;;;;;;1.60;1.27;;;;;;;25.92;39.55;95082.94;4873999;29;20205;-81
2022/10/04 09:44:13;;;;;;;1.40;1.27;;;;;;;26.06;39.60;95086.16;4873936;29;20680;-81
2022/10/04 09:47:12;;;;;;;1.50;1.40;;;;;;;26.08;39.52;95085.94;4873697;29;20197;-80
2022/10/04 09:50:12;;;;;;;1.40;1.30;;;;;;;26.09;39.12;95084.94;4873977;29;20247;-81
2022/10/04 09:52:49;;;;;;;2.40;1.63;;;;;;;25.94;39.35;95077.47;4874288;29;20231;-80
2022/10/04 09:55:29;;;;;;;1.30;1.30;;;;;;;25.82;39.50;95084.47;4915824;29;20194;-78
2022/10/04 09:58:14;;;;;;;1.42;1.33;;;;;;;25.56;39.56;95070.72;4938682;29;20203;-78
2022/10/04 10:00:46;;;;;;;1.88;1.52;;;;;;;25.35;40.11;95074.59;4931073;29;20201;-82
2022/10/04 10:03:50;;;;;;;1.23;1.20;;;;;;;25.27;39.78;95078.31;4930862;29;20198;-82
2022/10/04 10:06:54;;;;;;;1.40;1.30;;;;;;;25.11;40.16;95071.03;4930740;29;20337;-82
2022/10/04 10:15:31;;;;;;;2.47;1.38;;;;;;;25.30;39.93;95089.34;4892655;29;20204;-82
2022/10/04 10:18:14;;;;;;;1.30;1.20;;;;;;;25.37;39.63;95077.00;4892838;29;20200;-81
2022/10/04 10:21:04;;;;;;;1.38;1.38;;;;;;;25.50;39.55;95089.91;4892411;29;20719;-83
2022/10/04 10:24:03;;;;;;;1.45;1.35;;;;;;;25.44;39.78;95054.94;4892477;29;20189;-82
2022/10/04 10:26:45;;;;;;;2.85;1.40;;;;;;;25.67;39.31;95083.03;4890210;29;20208;-81
2022/10/04 10:29:51;;;;;;;2.65;1.33;;;;;;;25.82;39.59;95098.41;4911416;29;20236;-81
2022/10/04 10:32:50;;;;;;;1.95;1.20;;;;;;;25.89;39.51;95088.63;4911221;29;20226;-82
2022/10/04 10:35:28;;;;;;;1.23;1.23;;;;;;;25.95;39.47;95093.00;4899513;29;20672;-82
2022/10/04 10:38:33;;;;;;;1.30;1.20;;;;;;;25.93;39.46;95084.53;4916521;29;20233;-83
2022/10/04 10:41:26;;;;;;;1.20;1.20;;;;;;;25.91;39.59;95085.78;4930387;29;20203;-80
2022/10/04 10:44:33;;;;;;;2.22;1.40;;;;;;;25.83;39.97;95086.09;4930166;29;20195;-81
2022/10/04 10:47:30;;;;;;;1.25;1.15;;;;;;;25.81;39.79;95094.16;4894359;29;20735;-82
2022/10/04 10:50:21;;;;;;;1.58;1.48;;;;;;;25.73;39.57;95102.31;4911580;29;20228;-81
2022/10/04 10:53:16;;;;;;;3.95;1.23;;;;;;;25.65;39.91;95097.41;4914835;29;20188;-81
2022/10/04 10:56:25;;;;;;;1.42;1.33;;;;;;;25.54;40.10;95091.09;4914478;29;20714;-81
2022/10/04 10:59:20;;;;;;;4.18;1.63;;;;;;;25.20;40.01;95054.03;4913553;29;20203;-83
2022/10/04 11:02:25;;;;;;;1.60;1.50;;;;;;;25.39;40.00;95094.09;4912469;29;20200;-81
2022/10/04 11:05:09;;;;;;;2.67;1.70;;;;;;;25.34;39.78;95087.91;4858317;29;20197;-81
2022/10/04 11:07:51;;;;;;;1.85;1.70;;;;;;;25.29;40.04;95091.19;4858357;29;20250;-81
2022/10/04 11:11:03;;;;;;;1.30;1.30;;;;;;;25.25;40.00;95087.38;4858053;29;20669;-81
2022/10/04 11:14:11;;;;;;;2.38;1.42;;;;;;;25.19;40.32;95089.06;4858498;29;20190;-81
2022/10/04 11:17:10;;;;;;;2.53;1.50;;;;;;;25.08;39.90;95092.41;4858312;29;20194;-79
2022/10/04 11:20:15;;;;;;;1.73;1.63;;;;;;;24.98;40.15;95095.50;4803954;29;20708;-82
2022/10/04 11:23:29;;;;;;;1.67;1.58;;;;;;;25.02;40.40;95095.88;4764523;30;20200;-80
2022/10/04 11:26:49;;;;;;;2.58;1.52;;;;;;;25.04;40.00;95093.84;4723652;30;20727;-81
2022/10/04 11:29:32;;;;;;;2.63;1.60;;;;;;;24.93;40.32;95097.19;4707186;30;20227;-82
2022/10/04 11:32:47;;;;;;;1.40;1.33;;;;;;;24.80;40.18;95092.09;4706934;30;20270;-80
2022/10/04 11:35:45;;;;;;;1.70;1.60;;;;;;;24.58;40.56;95084.63;4669227;30;20261;-80
2022/10/04 11:38:48;;;;;;;1.52;1.42;;;;;;;24.47;40.51;95080.09;4673488;30;20235;-80
2022/10/04 11:41:31;;;;;;;2.30;1.55;;;;;;;24.45;40.51;95101.25;4682496;30;20665;-82
2022/10/04 11:44:17;;;;;;;1.73;1.42;;;;;;;24.40;40.73;95088.00;4682558;30;20208;-82
2022/10/04 11:46:53;;;;;;;1.83;1.45;;;;;;;24.30;40.64;95053.66;4679497;30;20205;-80
2022/10/04 11:49:38;;;;;;;1.30;1.30;;;;;;;24.64;40.46;95090.81;4678782;30;20236;-81
2022/10/04 11:52:40;;;;;;;1.67;1.52;;;;;;;24.66;40.35;95097.44;4679584;30;20223;-81
2022/10/04 11:55:45;;;;;;;1.60;1.50;;;;;;;24.63;40.30;95091.84;4685468;30;20219;-78
2022/10/04 11:58:20;;;;;;;1.70;1.60;;;;;;;24.44;40.91;95073.50;4663089;30;20241;-82
2022/10/04 12:01:14;;;;;;;1.48;1.38;;;;;;;24.43;40.42;95084.94;4726487;30;20234;-79
2022/10/04 12:04:16;;;;;;;1.58;1.48;;;;;;;24.51;40.71;95105.59;4805933;29;20238;-81
2022/10/04 12:06:58;;;;;;;1.60;1.50;;;;;;;24.40;40.88;95093.25;4820850;29;20208;-80
2022/10/04 12:09:37;;;;;;;1.40;1.30;;;;;;;24.39;40.85;95101.28;4820608;29;20210;-81
2022/10/04 12:12:37;;;;;;;1.30;1.30;;;;;;;24.32;41.08;95096.09;4876644;29;20208;-82
2022/10/04 12:15:38;;;;;;;1.50;1.40;;;;;;;24.21;41.19;95092.34;4894721;29;20200;-79
2022/10/04 12:18:40;;;;;;;1.77;1.67;;;;;;;24.18;41.30;95098.00;4802278;29;20367;-80
2022/10/04 12:21:34;;;;;;;2.00;1.80;;;;;;;24.07;41.24;95095.25;4801892;29;20208;-80
2022/10/04 12:24:14;;;;;;;3.22;1.80;;;;;;;23.89;41.66;95083.72;4801883;29;20241;-80
2022/10/04 12:27:28;;;;;;;2.70;1.70;;;;;;;23.76;41.60;95092.44;4802043;29;20767;-82
2022/10/04 12:30:14;;;;;;;1.40;1.40;;;;;;;23.68;41.85;95095.28;4766096;30;20696;-80
2022/10/04 12:32:52;;;;;;;1.80;1.50;;;;;;;23.54;41.59;95096.34;4765724;30;20284;-81
2022/10/04 12:35:28;;;;;;;1.63;1.52;;;;;;;23.40;41.59;95090.38;4823640;29;20198;-80
2022/10/04 12:38:22;;;;;;;2.90;1.58;;;;;;;23.35;41.96;95105.03;4842437;29;20225;-80
2022/10/04 12:40:56;;;;;;;1.48;1.40;;;;;;;23.16;41.98;95093.69;4835517;29;20217;-81
2022/10/04 12:43:37;;;;;;;1.80;1.70;;;;;;;23.24;41.93;95103.91;4839148;29;20208;-80
2022/10/04 12:46:16;;;;;;;2.00;1.80;;;;;;;23.20;41.88;95106.09;4856141;29;20196;-79
2022/10/04 12:48:53;;;;;;;1.88;1.65;;;;;;;23.12;42.07;95095.88;4856199;29;20193;-81